Airport ID:KN38
Update Time (UTC):30/05/2020 19:47
Wind Speed (Knots):15
Wind Direction (Magnetic):270
Temperature (°C):19
Dew Point (°C):10
Humidity (%):53
Altimeter (inHg):29.95
Density Altitude (Feet):2900
Visibility:10+
Clouds (Hundreds of feet):SCT045 SCT060 BKN070
Present Weather:
METAR:METAR KN38 301945Z AUTO 24012G23KT 10SM SCT045 BKN060 BKN075 19/10 A2995 RMK AO2

The data displayed is for advisory purposes only and is not to be used for flight planning or operations.